sensor_id;sensor_type;location;lat;lon;timestamp;P1;durP1;ratioP1;P2;durP2;ratioP2
68438;SDS011;55421;51.600;5.718;2023-09-30T00:01:41;15.50;;;5.80;;
68438;SDS011;55421;51.600;5.718;2023-09-30T00:04:07;16.00;;;5.90;;
68438;SDS011;55421;51.600;5.718;2023-09-30T00:06:35;10.60;;;5.60;;
68438;SDS011;55421;51.600;5.718;2023-09-30T00:09:02;13.00;;;6.10;;
68438;SDS011;55421;51.600;5.718;2023-09-30T00:11:29;15.70;;;6.10;;
68438;SDS011;55421;51.600;5.718;2023-09-30T00:13:56;14.10;;;6.20;;
68438;SDS011;55421;51.600;5.718;2023-09-30T00:16:22;11.20;;;6.00;;
68438;SDS011;55421;51.600;5.718;2023-09-30T00:18:49;12.00;;;6.40;;
68438;SDS011;55421;51.600;5.718;2023-09-30T00:21:15;13.20;;;5.60;;
68438;SDS011;55421;51.600;5.718;2023-09-30T00:23:42;12.20;;;6.00;;
68438;SDS011;55421;51.600;5.718;2023-09-30T00:26:08;9.70;;;5.60;;
68438;SDS011;55421;51.600;5.718;2023-09-30T00:28:35;10.40;;;5.80;;
68438;SDS011;55421;51.600;5.718;2023-09-30T00:31:06;12.90;;;6.00;;
68438;SDS011;55421;51.600;5.718;2023-09-30T00:33:37;13.90;;;5.80;;
68438;SDS011;55421;51.600;5.718;2023-09-30T00:36:10;11.10;;;5.90;;
68438;SDS011;55421;51.600;5.718;2023-09-30T00:38:38;10.60;;;5.60;;
68438;SDS011;55421;51.600;5.718;2023-09-30T00:41:04;13.50;;;6.20;;
68438;SDS011;55421;51.600;5.718;2023-09-30T00:43:31;11.20;;;6.00;;
68438;SDS011;55421;51.600;5.718;2023-09-30T00:46:04;14.00;;;6.20;;
68438;SDS011;55421;51.600;5.718;2023-09-30T00:48:37;11.80;;;6.20;;
68438;SDS011;55421;51.600;5.718;2023-09-30T00:51:05;13.80;;;6.50;;
68438;SDS011;55421;51.600;5.718;2023-09-30T00:53:32;13.70;;;7.00;;
68438;SDS011;55421;51.600;5.718;2023-09-30T00:55:59;12.90;;;6.70;;
68438;SDS011;55421;51.600;5.718;2023-09-30T00:58:27;12.70;;;6.40;;
68438;SDS011;55421;51.600;5.718;2023-09-30T01:00:56;16.00;;;6.90;;
68438;SDS011;55421;51.600;5.718;2023-09-30T01:03:24;11.20;;;6.70;;
68438;SDS011;55421;51.600;5.718;2023-09-30T01:05:51;16.20;;;6.00;;
68438;SDS011;55421;51.600;5.718;2023-09-30T01:08:18;12.80;;;6.30;;
68438;SDS011;55421;51.600;5.718;2023-09-30T01:10:46;10.20;;;6.10;;
68438;SDS011;55421;51.600;5.718;2023-09-30T01:13:14;12.20;;;5.90;;
68438;SDS011;55421;51.600;5.718;2023-09-30T01:15:40;13.10;;;6.40;;
68438;SDS011;55421;51.600;5.718;2023-09-30T01:18:07;16.90;;;6.70;;
68438;SDS011;55421;51.600;5.718;2023-09-30T01:20:33;13.00;;;6.70;;
68438;SDS011;55421;51.600;5.718;2023-09-30T01:23:01;17.80;;;6.60;;
68438;SDS011;55421;51.600;5.718;2023-09-30T01:25:29;12.30;;;6.40;;
68438;SDS011;55421;51.600;5.718;2023-09-30T01:27:56;12.70;;;6.60;;
68438;SDS011;55421;51.600;5.718;2023-09-30T01:30:26;13.60;;;7.10;;
68438;SDS011;55421;51.600;5.718;2023-09-30T01:32:52;12.20;;;6.80;;
68438;SDS011;55421;51.600;5.718;2023-09-30T01:35:19;12.20;;;6.70;;
68438;SDS011;55421;51.600;5.718;2023-09-30T01:37:46;14.30;;;7.00;;
68438;SDS011;55421;51.600;5.718;2023-09-30T01:40:12;11.90;;;6.60;;
68438;SDS011;55421;51.600;5.718;2023-09-30T01:42:39;12.20;;;6.60;;
68438;SDS011;55421;51.600;5.718;2023-09-30T01:45:06;13.00;;;6.40;;
68438;SDS011;55421;51.600;5.718;2023-09-30T01:47:33;12.60;;;6.10;;
68438;SDS011;55421;51.600;5.718;2023-09-30T01:50:00;13.20;;;6.50;;
68438;SDS011;55421;51.600;5.718;2023-09-30T01:52:26;11.80;;;6.20;;
68438;SDS011;55421;51.600;5.718;2023-09-30T01:54:53;13.30;;;6.70;;
68438;SDS011;55421;51.600;5.718;2023-09-30T01:57:20;12.60;;;6.20;;
68438;SDS011;55421;51.600;5.718;2023-09-30T01:59:46;15.50;;;6.90;;
68438;SDS011;55421;51.600;5.718;2023-09-30T02:02:13;13.20;;;6.80;;
68438;SDS011;55421;51.600;5.718;2023-09-30T02:04:39;10.00;;;6.80;;
68438;SDS011;55421;51.600;5.718;2023-09-30T02:07:06;14.40;;;6.90;;
68438;SDS011;55421;51.600;5.718;2023-09-30T02:09:32;11.30;;;6.70;;
68438;SDS011;55421;51.600;5.718;2023-09-30T02:11:59;15.00;;;6.90;;
68438;SDS011;55421;51.600;5.718;2023-09-30T02:14:26;12.20;;;6.60;;
68438;SDS011;55421;51.600;5.718;2023-09-30T02:16:52;11.00;;;6.50;;
68438;SDS011;55421;51.600;5.718;2023-09-30T02:19:19;10.50;;;6.30;;
68438;SDS011;55421;51.600;5.718;2023-09-30T02:21:46;13.20;;;7.80;;
68438;SDS011;55421;51.600;5.718;2023-09-30T02:24:12;12.70;;;7.20;;
68438;SDS011;55421;51.600;5.718;2023-09-30T02:26:39;11.30;;;7.30;;
68438;SDS011;55421;51.600;5.718;2023-09-30T02:29:05;13.40;;;6.90;;
68438;SDS011;55421;51.600;5.718;2023-09-30T02:31:34;12.50;;;7.70;;
68438;SDS011;55421;51.600;5.718;2023-09-30T02:34:01;13.10;;;7.20;;
68438;SDS011;55421;51.600;5.718;2023-09-30T02:36:29;16.20;;;8.00;;
68438;SDS011;55421;51.600;5.718;2023-09-30T02:38:55;12.20;;;7.30;;
68438;SDS011;55421;51.600;5.718;2023-09-30T02:41:22;12.90;;;7.40;;
68438;SDS011;55421;51.600;5.718;2023-09-30T02:43:48;12.10;;;7.20;;
68438;SDS011;55421;51.600;5.718;2023-09-30T02:46:16;10.70;;;6.90;;
68438;SDS011;55421;51.600;5.718;2023-09-30T02:48:42;11.50;;;7.40;;
68438;SDS011;55421;51.600;5.718;2023-09-30T02:51:10;15.00;;;7.90;;
68438;SDS011;55421;51.600;5.718;2023-09-30T02:53:38;14.30;;;8.10;;
68438;SDS011;55421;51.600;5.718;2023-09-30T02:56:04;14.60;;;8.00;;
68438;SDS011;55421;51.600;5.718;2023-09-30T02:58:31;14.10;;;7.70;;
68438;SDS011;55421;51.600;5.718;2023-09-30T03:00:57;14.00;;;7.60;;
68438;SDS011;55421;51.600;5.718;2023-09-30T03:03:25;12.50;;;7.50;;
68438;SDS011;55421;51.600;5.718;2023-09-30T03:05:52;12.60;;;7.50;;
68438;SDS011;55421;51.600;5.718;2023-09-30T03:08:20;14.30;;;8.30;;
68438;SDS011;55421;51.600;5.718;2023-09-30T03:10:48;13.60;;;8.40;;
68438;SDS011;55421;51.600;5.718;2023-09-30T03:13:14;12.80;;;8.30;;
68438;SDS011;55421;51.600;5.718;2023-09-30T03:15:41;14.20;;;8.00;;
68438;SDS011;55421;51.600;5.718;2023-09-30T03:18:07;13.20;;;8.60;;
68438;SDS011;55421;51.600;5.718;2023-09-30T03:20:34;14.30;;;8.00;;
68438;SDS011;55421;51.600;5.718;2023-09-30T03:23:00;16.70;;;8.10;;
68438;SDS011;55421;51.600;5.718;2023-09-30T03:25:28;14.40;;;8.20;;
68438;SDS011;55421;51.600;5.718;2023-09-30T03:27:56;14.40;;;8.20;;
68438;SDS011;55421;51.600;5.718;2023-09-30T03:30:23;14.80;;;8.10;;
68438;SDS011;55421;51.600;5.718;2023-09-30T03:32:50;14.00;;;8.00;;
68438;SDS011;55421;51.600;5.718;2023-09-30T03:35:17;13.70;;;8.00;;
68438;SDS011;55421;51.600;5.718;2023-09-30T03:37:44;13.50;;;8.40;;
68438;SDS011;55421;51.600;5.718;2023-09-30T03:40:14;14.50;;;8.50;;
68438;SDS011;55421;51.600;5.718;2023-09-30T03:42:46;17.00;;;8.50;;
68438;SDS011;55421;51.600;5.718;2023-09-30T03:45:16;14.20;;;8.20;;
68438;SDS011;55421;51.600;5.718;2023-09-30T03:47:43;13.10;;;8.00;;
68438;SDS011;55421;51.600;5.718;2023-09-30T03:50:10;14.40;;;8.70;;
68438;SDS011;55421;51.600;5.718;2023-09-30T03:52:42;15.30;;;8.20;;
68438;SDS011;55421;51.600;5.718;2023-09-30T03:55:11;12.80;;;8.60;;
68438;SDS011;55421;51.600;5.718;2023-09-30T03:57:39;14.30;;;8.40;;
68438;SDS011;55421;51.600;5.718;2023-09-30T04:00:06;14.30;;;8.40;;
68438;SDS011;55421;51.600;5.718;2023-09-30T04:02:37;17.40;;;8.50;;
68438;SDS011;55421;51.600;5.718;2023-09-30T04:05:04;16.80;;;8.80;;
68438;SDS011;55421;51.600;5.718;2023-09-30T04:07:31;16.20;;;9.20;;
68438;SDS011;55421;51.600;5.718;2023-09-30T04:09:59;17.50;;;9.40;;
68438;SDS011;55421;51.600;5.718;2023-09-30T04:12:27;13.30;;;9.00;;
68438;SDS011;55421;51.600;5.718;2023-09-30T04:14:54;15.30;;;9.20;;
68438;SDS011;55421;51.600;5.718;2023-09-30T04:17:21;15.50;;;9.20;;
68438;SDS011;55421;51.600;5.718;2023-09-30T04:19:49;15.80;;;9.00;;
68438;SDS011;55421;51.600;5.718;2023-09-30T04:22:19;17.40;;;10.20;;
68438;SDS011;55421;51.600;5.718;2023-09-30T04:24:47;20.00;;;9.70;;
68438;SDS011;55421;51.600;5.718;2023-09-30T04:27:15;16.30;;;9.90;;
68438;SDS011;55421;51.600;5.718;2023-09-30T04:29:43;16.20;;;9.50;;
68438;SDS011;55421;51.600;5.718;2023-09-30T04:32:10;15.40;;;9.70;;
68438;SDS011;55421;51.600;5.718;2023-09-30T04:34:36;15.90;;;9.80;;
68438;SDS011;55421;51.600;5.718;2023-09-30T04:37:03;21.70;;;10.00;;
68438;SDS011;55421;51.600;5.718;2023-09-30T04:39:30;17.50;;;10.00;;
68438;SDS011;55421;51.600;5.718;2023-09-30T04:44:29;15.20;;;9.60;;
68438;SDS011;55421;51.600;5.718;2023-09-30T04:46:57;14.60;;;9.00;;
68438;SDS011;55421;51.600;5.718;2023-09-30T04:49:24;18.00;;;10.30;;
68438;SDS011;55421;51.600;5.718;2023-09-30T04:51:50;19.50;;;9.80;;
68438;SDS011;55421;51.600;5.718;2023-09-30T04:54:17;14.80;;;9.30;;
68438;SDS011;55421;51.600;5.718;2023-09-30T04:56:43;14.60;;;9.60;;
68438;SDS011;55421;51.600;5.718;2023-09-30T04:59:10;17.50;;;9.50;;
68438;SDS011;55421;51.600;5.718;2023-09-30T05:01:36;16.20;;;10.40;;
68438;SDS011;55421;51.600;5.718;2023-09-30T05:04:03;16.70;;;9.30;;
68438;SDS011;55421;51.600;5.718;2023-09-30T05:06:30;16.90;;;9.50;;
68438;SDS011;55421;51.600;5.718;2023-09-30T05:08:58;15.80;;;9.70;;
68438;SDS011;55421;51.600;5.718;2023-09-30T05:11:26;15.80;;;9.10;;
68438;SDS011;55421;51.600;5.718;2023-09-30T05:13:52;15.60;;;9.30;;
68438;SDS011;55421;51.600;5.718;2023-09-30T05:16:19;18.40;;;9.80;;
68438;SDS011;55421;51.600;5.718;2023-09-30T05:18:45;18.50;;;9.30;;
68438;SDS011;55421;51.600;5.718;2023-09-30T05:21:12;23.00;;;10.00;;
68438;SDS011;55421;51.600;5.718;2023-09-30T05:23:38;18.50;;;9.30;;
68438;SDS011;55421;51.600;5.718;2023-09-30T05:26:04;16.50;;;8.80;;
68438;SDS011;55421;51.600;5.718;2023-09-30T05:28:32;19.30;;;9.30;;
68438;SDS011;55421;51.600;5.718;2023-09-30T05:30:58;14.10;;;9.30;;
68438;SDS011;55421;51.600;5.718;2023-09-30T05:33:25;17.30;;;9.50;;
68438;SDS011;55421;51.600;5.718;2023-09-30T05:35:59;17.20;;;9.40;;
68438;SDS011;55421;51.600;5.718;2023-09-30T05:38:29;19.60;;;10.20;;
68438;SDS011;55421;51.600;5.718;2023-09-30T05:41:17;18.90;;;9.70;;
68438;SDS011;55421;51.600;5.718;2023-09-30T05:43:44;17.20;;;9.90;;
68438;SDS011;55421;51.600;5.718;2023-09-30T05:46:10;15.90;;;9.50;;
68438;SDS011;55421;51.600;5.718;2023-09-30T05:48:37;16.60;;;9.90;;
68438;SDS011;55421;51.600;5.718;2023-09-30T05:51:05;18.70;;;9.30;;
68438;SDS011;55421;51.600;5.718;2023-09-30T05:53:33;17.80;;;8.90;;
68438;SDS011;55421;51.600;5.718;2023-09-30T05:55:59;16.10;;;8.90;;
68438;SDS011;55421;51.600;5.718;2023-09-30T05:58:26;16.60;;;10.10;;
68438;SDS011;55421;51.600;5.718;2023-09-30T06:00:52;17.10;;;9.00;;
68438;SDS011;55421;51.600;5.718;2023-09-30T06:03:19;17.50;;;9.90;;
68438;SDS011;55421;51.600;5.718;2023-09-30T06:05:47;17.40;;;9.40;;
68438;SDS011;55421;51.600;5.718;2023-09-30T06:08:14;22.90;;;9.60;;
68438;SDS011;55421;51.600;5.718;2023-09-30T06:10:42;17.20;;;9.30;;
68438;SDS011;55421;51.600;5.718;2023-09-30T06:13:10;16.10;;;8.90;;
68438;SDS011;55421;51.600;5.718;2023-09-30T06:15:41;17.60;;;9.70;;
68438;SDS011;55421;51.600;5.718;2023-09-30T06:18:10;19.00;;;10.00;;
68438;SDS011;55421;51.600;5.718;2023-09-30T06:20:38;18.80;;;9.80;;
68438;SDS011;55421;51.600;5.718;2023-09-30T06:23:05;14.80;;;9.80;;
68438;SDS011;55421;51.600;5.718;2023-09-30T06:25:31;16.70;;;10.10;;
68438;SDS011;55421;51.600;5.718;2023-09-30T06:27:59;16.70;;;10.30;;
68438;SDS011;55421;51.600;5.718;2023-09-30T06:30:26;20.10;;;11.10;;
68438;SDS011;55421;51.600;5.718;2023-09-30T06:32:56;22.00;;;11.00;;
68438;SDS011;55421;51.600;5.718;2023-09-30T06:35:24;17.80;;;10.70;;
68438;SDS011;55421;51.600;5.718;2023-09-30T06:37:50;17.30;;;11.00;;
68438;SDS011;55421;51.600;5.718;2023-09-30T06:40:17;20.40;;;10.30;;
68438;SDS011;55421;51.600;5.718;2023-09-30T06:42:45;20.80;;;10.90;;
68438;SDS011;55421;51.600;5.718;2023-09-30T06:45:11;20.50;;;10.90;;
68438;SDS011;55421;51.600;5.718;2023-09-30T06:47:40;19.60;;;10.80;;
68438;SDS011;55421;51.600;5.718;2023-09-30T06:50:12;19.70;;;10.80;;
68438;SDS011;55421;51.600;5.718;2023-09-30T06:52:43;21.00;;;11.30;;
68438;SDS011;55421;51.600;5.718;2023-09-30T06:55:11;19.70;;;10.90;;
68438;SDS011;55421;51.600;5.718;2023-09-30T06:57:41;18.40;;;11.40;;
68438;SDS011;55421;51.600;5.718;2023-09-30T07:00:13;22.40;;;11.00;;
68438;SDS011;55421;51.600;5.718;2023-09-30T07:02:41;17.70;;;11.00;;
68438;SDS011;55421;51.600;5.718;2023-09-30T07:05:09;21.00;;;11.40;;
68438;SDS011;55421;51.600;5.718;2023-09-30T07:07:42;18.80;;;11.40;;
68438;SDS011;55421;51.600;5.718;2023-09-30T07:10:10;18.80;;;10.60;;
68438;SDS011;55421;51.600;5.718;2023-09-30T07:12:38;20.30;;;11.10;;
68438;SDS011;55421;51.600;5.718;2023-09-30T07:15:06;19.60;;;11.50;;
68438;SDS011;55421;51.600;5.718;2023-09-30T07:17:33;20.60;;;11.70;;
68438;SDS011;55421;51.600;5.718;2023-09-30T07:20:01;21.20;;;12.20;;
68438;SDS011;55421;51.600;5.718;2023-09-30T07:22:28;17.50;;;10.70;;
68438;SDS011;55421;51.600;5.718;2023-09-30T07:24:55;17.50;;;10.90;;
68438;SDS011;55421;51.600;5.718;2023-09-30T07:27:21;23.80;;;11.40;;
68438;SDS011;55421;51.600;5.718;2023-09-30T07:29:48;20.00;;;11.00;;
68438;SDS011;55421;51.600;5.718;2023-09-30T07:32:15;17.80;;;10.00;;
68438;SDS011;55421;51.600;5.718;2023-09-30T07:34:42;22.60;;;11.10;;
68438;SDS011;55421;51.600;5.718;2023-09-30T07:37:10;20.20;;;10.80;;
68438;SDS011;55421;51.600;5.718;2023-09-30T07:39:36;20.80;;;11.20;;
68438;SDS011;55421;51.600;5.718;2023-09-30T07:42:03;17.40;;;10.30;;
68438;SDS011;55421;51.600;5.718;2023-09-30T07:44:30;25.40;;;10.60;;
68438;SDS011;55421;51.600;5.718;2023-09-30T07:46:58;16.90;;;10.30;;
68438;SDS011;55421;51.600;5.718;2023-09-30T07:49:25;23.80;;;10.20;;
68438;SDS011;55421;51.600;5.718;2023-09-30T07:51:51;18.80;;;10.60;;
68438;SDS011;55421;51.600;5.718;2023-09-30T07:54:18;22.40;;;10.50;;
68438;SDS011;55421;51.600;5.718;2023-09-30T07:56:44;20.60;;;9.80;;
68438;SDS011;55421;51.600;5.718;2023-09-30T07:59:11;21.40;;;10.30;;
68438;SDS011;55421;51.600;5.718;2023-09-30T08:01:37;20.50;;;9.70;;
68438;SDS011;55421;51.600;5.718;2023-09-30T08:04:04;19.20;;;9.10;;
68438;SDS011;55421;51.600;5.718;2023-09-30T08:06:30;19.00;;;9.80;;
68438;SDS011;55421;51.600;5.718;2023-09-30T08:08:58;18.20;;;9.40;;
68438;SDS011;55421;51.600;5.718;2023-09-30T08:11:24;23.70;;;10.10;;
68438;SDS011;55421;51.600;5.718;2023-09-30T08:13:57;19.80;;;8.90;;
68438;SDS011;55421;51.600;5.718;2023-09-30T08:16:25;21.10;;;9.10;;
68438;SDS011;55421;51.600;5.718;2023-09-30T08:18:51;17.80;;;9.00;;
68438;SDS011;55421;51.600;5.718;2023-09-30T08:21:18;18.10;;;8.60;;
68438;SDS011;55421;51.600;5.718;2023-09-30T08:23:44;21.10;;;9.30;;
68438;SDS011;55421;51.600;5.718;2023-09-30T08:26:11;18.10;;;9.20;;
68438;SDS011;55421;51.600;5.718;2023-09-30T08:28:37;20.60;;;9.00;;
68438;SDS011;55421;51.600;5.718;2023-09-30T08:31:05;18.90;;;9.30;;
68438;SDS011;55421;51.600;5.718;2023-09-30T08:33:32;20.60;;;8.60;;
68438;SDS011;55421;51.600;5.718;2023-09-30T08:36:03;19.20;;;8.80;;
68438;SDS011;55421;51.600;5.718;2023-09-30T08:38:37;16.30;;;8.20;;
68438;SDS011;55421;51.600;5.718;2023-09-30T08:41:05;22.10;;;8.10;;
68438;SDS011;55421;51.600;5.718;2023-09-30T08:43:37;18.20;;;8.00;;
68438;SDS011;55421;51.600;5.718;2023-09-30T08:46:05;18.00;;;8.00;;
68438;SDS011;55421;51.600;5.718;2023-09-30T08:48:33;18.70;;;7.40;;
68438;SDS011;55421;51.600;5.718;2023-09-30T08:51:01;17.10;;;7.10;;
68438;SDS011;55421;51.600;5.718;2023-09-30T08:53:29;15.00;;;7.10;;
68438;SDS011;55421;51.600;5.718;2023-09-30T08:55:57;19.30;;;8.30;;
68438;SDS011;55421;51.600;5.718;2023-09-30T08:58:27;17.60;;;7.60;;
68438;SDS011;55421;51.600;5.718;2023-09-30T09:00:55;20.40;;;7.70;;
68438;SDS011;55421;51.600;5.718;2023-09-30T09:03:23;14.90;;;7.80;;
68438;SDS011;55421;51.600;5.718;2023-09-30T09:05:54;19.80;;;8.30;;
68438;SDS011;55421;51.600;5.718;2023-09-30T09:08:24;15.90;;;7.40;;
68438;SDS011;55421;51.600;5.718;2023-09-30T09:10:58;14.90;;;8.40;;
68438;SDS011;55421;51.600;5.718;2023-09-30T09:13:27;15.70;;;7.60;;
68438;SDS011;55421;51.600;5.718;2023-09-30T09:16:07;16.70;;;8.40;;
68438;SDS011;55421;51.600;5.718;2023-09-30T09:18:35;16.30;;;8.60;;
68438;SDS011;55421;51.600;5.718;2023-09-30T09:21:16;16.50;;;8.40;;
68438;SDS011;55421;51.600;5.718;2023-09-30T09:23:50;20.70;;;8.90;;
68438;SDS011;55421;51.600;5.718;2023-09-30T09:28:44;16.60;;;7.90;;
68438;SDS011;55421;51.600;5.718;2023-09-30T09:31:27;15.50;;;6.90;;
68438;SDS011;55421;51.600;5.718;2023-09-30T09:33:55;18.80;;;8.50;;
68438;SDS011;55421;51.600;5.718;2023-09-30T09:36:38;16.30;;;7.90;;
68438;SDS011;55421;51.600;5.718;2023-09-30T09:39:06;14.70;;;8.00;;
68438;SDS011;55421;51.600;5.718;2023-09-30T09:41:49;13.30;;;7.30;;
68438;SDS011;55421;51.600;5.718;2023-09-30T09:44:19;14.70;;;7.20;;
68438;SDS011;55421;51.600;5.718;2023-09-30T09:46:50;14.10;;;7.60;;
68438;SDS011;55421;51.600;5.718;2023-09-30T09:49:17;15.00;;;7.30;;
68438;SDS011;55421;51.600;5.718;2023-09-30T09:51:48;14.00;;;7.70;;
68438;SDS011;55421;51.600;5.718;2023-09-30T09:54:16;13.30;;;6.80;;
68438;SDS011;55421;51.600;5.718;2023-09-30T09:56:46;11.90;;;5.80;;
68438;SDS011;55421;51.600;5.718;2023-09-30T09:59:15;15.50;;;6.80;;
68438;SDS011;55421;51.600;5.718;2023-09-30T10:01:42;11.20;;;5.80;;
68438;SDS011;55421;51.600;5.718;2023-09-30T10:04:13;12.30;;;5.50;;
68438;SDS011;55421;51.600;5.718;2023-09-30T10:06:43;10.00;;;5.30;;
68438;SDS011;55421;51.600;5.718;2023-09-30T10:09:14;11.90;;;5.70;;
68438;SDS011;55421;51.600;5.718;2023-09-30T10:11:43;12.10;;;5.60;;
68438;SDS011;55421;51.600;5.718;2023-09-30T10:14:31;11.20;;;5.70;;
68438;SDS011;55421;51.600;5.718;2023-09-30T10:16:59;11.40;;;5.00;;
68438;SDS011;55421;51.600;5.718;2023-09-30T10:19:26;12.40;;;5.20;;
68438;SDS011;55421;51.600;5.718;2023-09-30T10:24:43;11.00;;;4.50;;
68438;SDS011;55421;51.600;5.718;2023-09-30T10:29:54;6.40;;;3.30;;
68438;SDS011;55421;51.600;5.718;2023-09-30T10:35:20;8.40;;;3.20;;
68438;SDS011;55421;51.600;5.718;2023-09-30T10:40:51;11.60;;;4.50;;
68438;SDS011;55421;51.600;5.718;2023-09-30T10:43:31;11.30;;;4.10;;
68438;SDS011;55421;51.600;5.718;2023-09-30T10:48:55;10.90;;;4.20;;
68438;SDS011;55421;51.600;5.718;2023-09-30T10:51:23;9.60;;;4.20;;
68438;SDS011;55421;51.600;5.718;2023-09-30T10:53:52;14.90;;;5.20;;
68438;SDS011;55421;51.600;5.718;2023-09-30T10:56:23;11.20;;;4.50;;
68438;SDS011;55421;51.600;5.718;2023-09-30T10:58:58;11.90;;;4.30;;
68438;SDS011;55421;51.600;5.718;2023-09-30T11:01:32;10.30;;;4.00;;
68438;SDS011;55421;51.600;5.718;2023-09-30T11:04:02;7.60;;;3.70;;
68438;SDS011;55421;51.600;5.718;2023-09-30T11:06:31;7.00;;;3.70;;
68438;SDS011;55421;51.600;5.718;2023-09-30T11:08:59;7.80;;;3.10;;
68438;SDS011;55421;51.600;5.718;2023-09-30T11:11:38;7.60;;;2.90;;
68438;SDS011;55421;51.600;5.718;2023-09-30T11:14:22;11.50;;;3.50;;
68438;SDS011;55421;51.600;5.718;2023-09-30T11:16:58;9.40;;;3.90;;
68438;SDS011;55421;51.600;5.718;2023-09-30T11:19:45;7.90;;;3.10;;
68438;SDS011;55421;51.600;5.718;2023-09-30T11:22:14;7.00;;;3.10;;
68438;SDS011;55421;51.600;5.718;2023-09-30T11:24:41;7.70;;;3.60;;
68438;SDS011;55421;51.600;5.718;2023-09-30T11:27:08;7.10;;;3.40;;
68438;SDS011;55421;51.600;5.718;2023-09-30T11:29:35;6.30;;;3.20;;
68438;SDS011;55421;51.600;5.718;2023-09-30T11:32:02;10.20;;;3.50;;
68438;SDS011;55421;51.600;5.718;2023-09-30T11:34:34;7.30;;;3.60;;
68438;SDS011;55421;51.600;5.718;2023-09-30T11:37:02;6.20;;;3.10;;
68438;SDS011;55421;51.600;5.718;2023-09-30T11:39:30;7.40;;;3.40;;
68438;SDS011;55421;51.600;5.718;2023-09-30T11:41:57;7.00;;;3.10;;
68438;SDS011;55421;51.600;5.718;2023-09-30T11:44:25;9.80;;;3.30;;
68438;SDS011;55421;51.600;5.718;2023-09-30T11:47:00;7.90;;;3.20;;
68438;SDS011;55421;51.600;5.718;2023-09-30T11:51:59;6.30;;;2.60;;
68438;SDS011;55421;51.600;5.718;2023-09-30T11:54:34;5.20;;;2.90;;
68438;SDS011;55421;51.600;5.718;2023-09-30T11:57:08;5.80;;;2.40;;
68438;SDS011;55421;51.600;5.718;2023-09-30T11:59:38;6.40;;;2.50;;
68438;SDS011;55421;51.600;5.718;2023-09-30T12:02:12;5.10;;;2.60;;
68438;SDS011;55421;51.600;5.718;2023-09-30T12:04:42;7.90;;;2.70;;
68438;SDS011;55421;51.600;5.718;2023-09-30T12:07:10;7.80;;;2.70;;
68438;SDS011;55421;51.600;5.718;2023-09-30T12:09:37;4.70;;;2.20;;
68438;SDS011;55421;51.600;5.718;2023-09-30T12:12:06;6.20;;;2.80;;
68438;SDS011;55421;51.600;5.718;2023-09-30T12:14:35;4.60;;;2.00;;
68438;SDS011;55421;51.600;5.718;2023-09-30T12:17:02;6.30;;;2.30;;
68438;SDS011;55421;51.600;5.718;2023-09-30T12:19:29;5.30;;;2.30;;
68438;SDS011;55421;51.600;5.718;2023-09-30T12:21:56;4.20;;;2.10;;
68438;SDS011;55421;51.600;5.718;2023-09-30T12:24:22;5.70;;;2.70;;
68438;SDS011;55421;51.600;5.718;2023-09-30T12:26:50;7.60;;;3.00;;
68438;SDS011;55421;51.600;5.718;2023-09-30T12:29:19;7.50;;;2.90;;
68438;SDS011;55421;51.600;5.718;2023-09-30T12:31:49;7.00;;;2.60;;
68438;SDS011;55421;51.600;5.718;2023-09-30T12:34:16;8.40;;;3.20;;
68438;SDS011;55421;51.600;5.718;2023-09-30T12:36:44;9.10;;;2.40;;
68438;SDS011;55421;51.600;5.718;2023-09-30T12:39:11;9.00;;;3.10;;
68438;SDS011;55421;51.600;5.718;2023-09-30T12:41:42;7.50;;;3.30;;
68438;SDS011;55421;51.600;5.718;2023-09-30T12:44:10;9.10;;;3.00;;
68438;SDS011;55421;51.600;5.718;2023-09-30T12:46:37;7.10;;;2.70;;
68438;SDS011;55421;51.600;5.718;2023-09-30T12:49:06;7.10;;;2.70;;
68438;SDS011;55421;51.600;5.718;2023-09-30T12:51:34;7.30;;;2.70;;
68438;SDS011;55421;51.600;5.718;2023-09-30T12:54:02;4.60;;;2.30;;
68438;SDS011;55421;51.600;5.718;2023-09-30T12:56:30;5.40;;;2.60;;
68438;SDS011;55421;51.600;5.718;2023-09-30T12:58:57;4.50;;;2.30;;
68438;SDS011;55421;51.600;5.718;2023-09-30T13:01:25;6.40;;;2.50;;
68438;SDS011;55421;51.600;5.718;2023-09-30T13:03:52;5.80;;;2.40;;
68438;SDS011;55421;51.600;5.718;2023-09-30T13:06:19;6.70;;;2.50;;
68438;SDS011;55421;51.600;5.718;2023-09-30T13:08:46;8.30;;;2.90;;
68438;SDS011;55421;51.600;5.718;2023-09-30T13:11:13;6.00;;;2.60;;
68438;SDS011;55421;51.600;5.718;2023-09-30T13:13:40;5.80;;;2.40;;
68438;SDS011;55421;51.600;5.718;2023-09-30T13:16:10;4.80;;;2.60;;
68438;SDS011;55421;51.600;5.718;2023-09-30T13:18:38;4.80;;;2.40;;
68438;SDS011;55421;51.600;5.718;2023-09-30T13:21:04;6.00;;;2.80;;
68438;SDS011;55421;51.600;5.718;2023-09-30T13:23:34;7.10;;;2.90;;
68438;SDS011;55421;51.600;5.718;2023-09-30T13:26:01;6.90;;;2.40;;
68438;SDS011;55421;51.600;5.718;2023-09-30T13:28:28;6.30;;;2.40;;
68438;SDS011;55421;51.600;5.718;2023-09-30T13:30:54;6.70;;;2.40;;
68438;SDS011;55421;51.600;5.718;2023-09-30T13:33:21;5.50;;;2.20;;
68438;SDS011;55421;51.600;5.718;2023-09-30T13:35:47;8.00;;;2.60;;
68438;SDS011;55421;51.600;5.718;2023-09-30T13:38:14;5.20;;;2.50;;
68438;SDS011;55421;51.600;5.718;2023-09-30T13:40:42;4.90;;;2.50;;
68438;SDS011;55421;51.600;5.718;2023-09-30T13:43:08;5.30;;;2.50;;
68438;SDS011;55421;51.600;5.718;2023-09-30T13:45:35;6.80;;;2.40;;
68438;SDS011;55421;51.600;5.718;2023-09-30T13:48:03;4.40;;;2.60;;
68438;SDS011;55421;51.600;5.718;2023-09-30T13:50:30;7.10;;;2.60;;
68438;SDS011;55421;51.600;5.718;2023-09-30T13:52:57;6.40;;;2.70;;
68438;SDS011;55421;51.600;5.718;2023-09-30T13:55:27;6.10;;;2.90;;
68438;SDS011;55421;51.600;5.718;2023-09-30T13:57:53;6.70;;;2.40;;
68438;SDS011;55421;51.600;5.718;2023-09-30T14:00:19;5.20;;;2.40;;
68438;SDS011;55421;51.600;5.718;2023-09-30T14:02:47;4.20;;;2.40;;
68438;SDS011;55421;51.600;5.718;2023-09-30T14:05:14;6.70;;;2.70;;
68438;SDS011;55421;51.600;5.718;2023-09-30T14:07:40;6.20;;;2.30;;
68438;SDS011;55421;51.600;5.718;2023-09-30T14:10:07;3.60;;;2.10;;
68438;SDS011;55421;51.600;5.718;2023-09-30T14:12:37;4.30;;;2.50;;
68438;SDS011;55421;51.600;5.718;2023-09-30T14:15:05;7.60;;;2.90;;
68438;SDS011;55421;51.600;5.718;2023-09-30T14:17:32;4.70;;;2.20;;
68438;SDS011;55421;51.600;5.718;2023-09-30T14:20:01;4.90;;;2.50;;
68438;SDS011;55421;51.600;5.718;2023-09-30T14:22:27;6.50;;;2.80;;
68438;SDS011;55421;51.600;5.718;2023-09-30T14:24:54;6.70;;;2.60;;
68438;SDS011;55421;51.600;5.718;2023-09-30T14:27:20;6.60;;;2.50;;
68438;SDS011;55421;51.600;5.718;2023-09-30T14:29:47;5.50;;;2.60;;
68438;SDS011;55421;51.600;5.718;2023-09-30T14:32:14;7.50;;;2.70;;
68438;SDS011;55421;51.600;5.718;2023-09-30T14:34:41;7.20;;;2.80;;
68438;SDS011;55421;51.600;5.718;2023-09-30T14:37:07;5.40;;;2.60;;
68438;SDS011;55421;51.600;5.718;2023-09-30T14:39:34;4.40;;;2.50;;
68438;SDS011;55421;51.600;5.718;2023-09-30T14:42:00;6.90;;;2.80;;
68438;SDS011;55421;51.600;5.718;2023-09-30T14:44:27;7.10;;;3.50;;
68438;SDS011;55421;51.600;5.718;2023-09-30T14:46:53;6.80;;;2.80;;
68438;SDS011;55421;51.600;5.718;2023-09-30T14:49:22;5.60;;;2.70;;
68438;SDS011;55421;51.600;5.718;2023-09-30T14:51:48;4.30;;;2.40;;
68438;SDS011;55421;51.600;5.718;2023-09-30T14:54:15;6.40;;;2.60;;
68438;SDS011;55421;51.600;5.718;2023-09-30T14:56:41;5.00;;;3.20;;
68438;SDS011;55421;51.600;5.718;2023-09-30T14:59:08;7.60;;;2.80;;
68438;SDS011;55421;51.600;5.718;2023-09-30T15:01:34;7.90;;;3.10;;
68438;SDS011;55421;51.600;5.718;2023-09-30T15:04:01;4.80;;;2.50;;